Lewistown, MT

8:19 PM MST on December 04, 2016 (GMT -0700)
3rd Ave S Lewistown | | Change Station
Active Advisory: Winter Weather Advisory Active Notice: Public Information Statement

Elev 3927 ft 47.06 °N, 109.42 °W | Updated 24 seconds ago

Light Snow
Light Snow Mist
28.5 °F
Feels Like 22 °F
N
6.0
Wind Variable Wind from SW
Gusts 9.0 mph

Today
High -- | Low -- °F
--% Chance of Precip.
Yesterday
High -- | Low -- °F
Precip. -- in
Pressure 29.57 in
Visibility 2.0 miles
Clouds Few 600 ft
Overcast 1700 ft
Windchill 22 °F
Dew Point 25 °F
Humidity 87%
Rainfall 0.00 in
Snow Depth Not available.
7:47 AM 4:29 PM
Waxing Crescent, 27% visible
SPECI KLWT 050317Z AUTO 29010KT 2SM -SN BR FEW006 OVC017 M03/M04 A2957 RMK AO2 P0001 T10281039
Pressure 29.57 in
Visibility 2.0 miles
Clouds Few 600 ft
Overcast 1700 ft
Windchill 22 °F
Dew Point 25 °F
Humidity 87%
Rainfall 0.00 in
Snow Depth Not available.
7:47 AM 4:29 PM
Waxing Crescent, 27% visible
SPECI KLWT 050317Z AUTO 29010KT 2SM -SN BR FEW006 OVC017 M03/M04 A2957 RMK AO2 P0001 T10281039

10-Day Weather Forecast

Almanac

Astronomy

Dec. 04, 2016 Rise Set
Actual Time
Civil Twilight
Nautical Twilight
Astronomical Twilight
Moon
Length of Visible Light
Length of Day
Tomorrow will be .
, % of the Moon is Illuminated

Today's Extremes

State Highs State Lows

Community

WunderPhotos

Upload Photos

1,955,752 photos uploaded!

WunderBlog® & News

Nearby

Air Quality

  Air Quality AQ Index Pollutant
Not available.

Snow Depth

Station Depth Elevation

Earthquake Activity

City Distance Mag. Time & Date
Minimum magnitude displayed is 2.5.

Coastal Water Temperatures

Place Temperature

Stations

Nearby Weather Stations

Station Location Temp. Windchill Dew Point Humidity Wind Precip. Elev Updated Type
                   

Watches & Warnings

Winter Weather Advisory
Issued: 2:41 PM MST Dec. 4, 2016 – National Weather Service

... Winter Weather Advisory remains in effect until 5 PM MST
Monday...

* locations... Lewistown... Lewistown Divide... Big Sandy... Fort
Benton.

* Snow accumulations... 1 to 2 inches.

* Timing... snow showers will develop this afternoon... then
become steadier and heavier tonight. The snow will begin to
taper off on Monday.

* Impacts... snow and blowing snow will create hazardous driving
conditions at times through Monday. In addition... snow showers
this afternoon will create rapidly changing conditions due to
brief bursts of heavier snow.

* Winds... northwest 10 to 20 mph with gusts up to 35 mph.

Precautionary/preparedness actions...

A Winter Weather Advisory for snow means that periods of snow
will cause primarily travel difficulties. Be prepared for snow
covered roads and limited visibilities... and use caution while
driving.

For specific Road and travel conditions in Montana... dial 5 1 1.



Martin